Latest Weather Observations for Jacup

IDW60801

Issued at 10:33 am WST Tuesday 22 September 2020 (issued every 10 minutes, with the page automatically refreshed every 10 minutes)

About weather observations | Map of weather stations | Latest weather observations for WA | Other Formats
Station Details ID: 010905 Name: JACUP Lat: -33.89 Lon: 119.11 Height: 305.0 m
Data from the previous 72 hours. | See also: Recent months at Jacup
Date/Time
WST
Temp
°C
App
Temp
°C
Dew
Point
°C
Rel
Hum
%
Delta-T
°C
Wind Press
QNH
hPa
Press
MSL
hPa
Rain since
9am
mm
Dir  Spd
km/h
Gust
km/h
Spd
kts
Gust
kts
22/10:30am 15.7 11.8 5.3 50 5.0 SW 15 24 8 13 1022.8 1022.7 0.0
22/10:00am 14.5 10.2 5.3 54 4.4 SSW 17 24 9 13 1023.0 1023.0 0.0
22/09:30am 14.0 10.5 5.4 56 4.1 SW 13 24 7 13 1023.1 1023.1 0.0
22/09:00am 13.5 9.3 5.9 60 3.6 SW 17 30 9 16 1022.9 1022.8 0.2
22/08:30am 12.7 8.9 7.6 71 2.5 WSW 17 24 9 13 1022.7 1022.6 0.2
22/08:00am 11.0 7.7 8.1 82 1.4 W 15 24 8 13 1022.4 1022.3 0.2
22/07:30am 9.4 5.7 8.0 91 0.7 W 17 22 9 12 1022.1 1022.0 0.2
22/07:00am 8.1 4.9 7.0 93 0.5 W 13 20 7 11 1021.7 1021.6 0.2
22/06:30am 7.0 3.6 5.9 93 0.5 WNW 13 19 7 10 1021.3 1021.2 0.2
22/06:00am 6.2 3.4 5.2 93 0.4 WNW 9 13 5 7 1021.0 1020.9 0.2
22/05:30am 6.5 3.3 5.3 92 0.5 WNW 11 15 6 8 1020.6 1020.6 0.2
22/05:00am 6.8 3.7 5.6 92 0.5 WNW 11 15 6 8 1020.1 1020.0 0.2
22/04:30am 7.2 4.2 5.8 91 0.6 WNW 11 15 6 8 1019.9 1019.8 0.2
22/04:00am 8.1 4.9 6.7 91 0.7 W 13 19 7 10 1019.6 1019.5 0.2
22/03:30am 9.2 5.4 7.6 90 0.8 W 17 24 9 13 1019.5 1019.4 0.2
22/03:00am 9.8 5.8 8.2 90 0.8 WSW 19 30 10 16 1019.3 1019.2 0.2
22/02:30am 10.2 6.7 8.6 90 0.8 W 17 24 9 13 1019.1 1019.0 0.2
22/02:00am 10.5 6.3 8.4 87 1.0 W 20 35 11 19 1018.9 1018.8 0.2
22/01:30am 10.4 6.4 8.2 86 1.1 W 19 30 10 16 1018.8 1018.7 0.2
22/01:00am 10.2 6.1 7.8 85 1.2 W 19 30 10 16 1018.8 1018.7 0.2
22/12:30am 9.7 5.9 7.6 87 1.0 WNW 17 24 9 13 1018.9 1018.8 0.2
22/12:00am 9.2 5.3 7.0 86 1.0 WNW 17 22 9 12 1018.9 1018.8 0.2
 
Date/Time
WST
Temp
°C
App
Temp
°C
Dew
Point
°C
Rel
Hum
%
Delta-T
°C
Wind Press
QNH
hPa
Press
MSL
hPa
Rain since
9am
mm
Dir  Spd
km/h
Gust
km/h
Spd
kts
Gust
kts
21/11:30pm 9.0 5.3 6.3 83 1.3 WNW 15 20 8 11 1018.9 1018.8 0.2
21/11:00pm 8.5 4.7 6.0 84 1.2 WNW 15 20 8 11 1019.1 1019.0 0.2
21/10:30pm 7.8 5.1 5.4 85 1.1 WNW 9 15 5 8 1019.4 1019.3 0.2
21/10:00pm 8.3 4.8 5.6 83 1.2 WNW 13 20 7 11 1019.5 1019.4 0.2
21/09:30pm 8.5 5.4 5.4 81 1.4 WNW 11 15 6 8 1019.7 1019.6 0.2
21/09:00pm 9.1 5.7 6.0 81 1.4 WNW 13 17 7 9 1019.7 1019.6 0.2
21/08:30pm 8.8 6.5 5.5 80 1.5 WNW 7 11 4 6 1019.9 1019.8 0.2
21/08:00pm 9.6 7.3 5.6 76 1.9 WNW 7 13 4 7 1019.9 1019.8 0.2
21/07:30pm 10.8 8.6 6.0 72 2.3 WNW 7 9 4 5 1019.7 1019.6 0.2
21/07:00pm 11.3 9.1 6.2 71 2.4 W 7 9 4 5 1019.6 1019.5 0.2
21/06:30pm 11.6 9.0 6.1 69 2.6 W 9 13 5 7 1019.5 1019.4 0.2
21/06:00pm 12.1 9.1 5.9 66 2.9 WSW 11 17 6 9 1019.3 1019.2 0.2
21/05:30pm 12.4 9.0 6.0 65 3.1 W 13 19 7 10 1019.3 1019.2 0.2
21/05:00pm 12.9 8.3 5.8 62 3.4 WSW 19 28 10 15 1019.1 1019.0 0.2
21/04:30pm 13.5 8.7 5.7 59 3.7 WSW 20 33 11 18 1018.8 1018.7 0.2
21/04:00pm 13.4 8.6 5.6 59 3.7 WSW 20 33 11 18 1018.6 1018.5 0.2
21/03:30pm 13.7 8.8 5.3 57 4.0 WSW 20 32 11 17 1018.5 1018.4 0.2
21/03:00pm 15.2 11.3 7.0 58 4.1 WSW 17 26 9 14 1018.2 1018.1 0.2
21/02:30pm 13.8 9.9 7.1 64 3.3 SSW 17 26 9 14 1018.2 1018.1 0.2
21/02:00pm 14.8 10.5 6.9 59 3.9 WSW 19 32 10 17 1018.2 1018.1 0.2
21/01:30pm 14.3 10.0 7.1 62 3.6 SW 19 32 10 17 1018.3 1018.2 0.2
21/01:00pm 13.9 9.5 6.5 61 3.6 WSW 19 30 10 16 1018.3 1018.2 0.2
21/12:30pm 13.0 8.4 5.4 60 3.6 WSW 19 32 10 17 1018.5 1018.4 0.2
21/12:00pm 12.8 8.2 5.7 62 3.4 WSW 19 30 10 16 1018.7 1018.6 0.2
21/11:30am 12.4 7.3 5.8 64 3.1 SW 22 35 12 19 1018.8 1018.7 0.2
21/11:00am 12.0 7.3 5.9 66 2.9 SW 20 28 11 15 1018.9 1018.8 0.2
21/10:30am 11.2 6.7 6.3 72 2.3 WSW 19 30 10 16 1018.9 1018.8 0.2
21/10:00am 11.5 7.8 9.4 87 1.1 SW 19 28 10 15 1019.0 1018.9 0.2
21/09:30am 9.7 5.8 8.6 93 0.5 WSW 19 35 10 19 1019.1 1019.0 0.2
21/09:00am 9.6 5.5 8.5 93 0.5 WSW 20 33 11 18 1018.8 1018.7 5.8
21/08:30am 9.1 4.5 8.2 94 0.4 WSW 22 35 12 19 1018.5 1018.4 5.8
21/08:00am 8.4 4.0 7.6 95 0.4 W 20 28 11 15 1018.3 1018.2 5.8
21/07:30am 8.3 3.9 7.5 95 0.4 WSW 20 32 11 17 1018.0 1017.9 5.8
21/07:00am 8.2 4.0 7.4 95 0.4 W 19 28 10 15 1017.3 1017.2 5.6
21/06:30am 8.2 4.4 7.4 95 0.4 W 17 28 9 15 1016.9 1016.8 5.6
21/06:00am 8.1 4.2 7.3 95 0.4 WSW 17 28 9 15 1016.5 1016.4 5.6
21/05:30am 8.2 4.0 7.4 95 0.4 WSW 19 30 10 16 1016.2 1016.1 5.2
21/05:00am 8.4 4.0 7.6 95 0.4 WSW 20 32 11 17 1015.9 1015.8 5.0
21/04:30am 8.4 4.0 7.6 95 0.4 W 20 33 11 18 1015.6 1015.5 4.6
21/04:00am 8.5 4.4 7.7 95 0.4 W 19 30 10 16 1015.5 1015.4 4.4
21/03:30am 8.6 4.9 7.8 95 0.4 W 17 24 9 13 1015.3 1015.2 4.0
21/03:00am 8.8 5.1 8.0 95 0.4 W 17 26 9 14 1015.3 1015.2 3.8
21/02:30am 8.8 5.1 8.0 95 0.4 WSW 17 26 9 14 1015.2 1015.1 3.4
21/02:00am 8.7 5.0 7.9 95 0.4 WSW 17 28 9 15 1015.1 1015.0 3.0
21/01:30am 8.8 4.7 8.0 95 0.4 W 19 30 10 16 1014.9 1014.8 3.0
21/01:00am 8.7 5.0 7.9 95 0.4 W 17 24 9 13 1014.9 1014.8 3.0
21/12:30am 8.8 4.7 7.9 94 0.4 W 19 28 10 15 1014.9 1014.8 3.0
21/12:00am 9.0 5.0 8.1 94 0.4 WSW 19 30 10 16 1014.9 1014.8 2.8
 
Date/Time
WST
Temp
°C
App
Temp
°C
Dew
Point
°C
Rel
Hum
%
Delta-T
°C
Wind Press
QNH
hPa
Press
MSL
hPa
Rain since
9am
mm
Dir  Spd
km/h
Gust
km/h
Spd
kts
Gust
kts
20/11:30pm 9.0 4.8 8.1 94 0.4 WSW 20 32 11 17 1014.8 1014.7 2.4
20/11:00pm 9.0 4.4 8.1 94 0.4 W 22 32 12 17 1014.6 1014.4 2.2
20/10:30pm 9.1 4.9 8.2 94 0.4 W 20 33 11 18 1014.6 1014.4 2.2
20/10:00pm 9.2 5.0 8.3 94 0.4 W 20 30 11 16 1014.6 1014.4 2.2
20/09:30pm 9.1 4.9 8.2 94 0.4 W 20 35 11 19 1014.6 1014.4 2.0
20/09:00pm 9.2 5.0 8.1 93 0.5 W 20 32 11 17 1014.5 1014.3 1.8
20/08:30pm 9.2 4.6 8.1 93 0.5 W 22 39 12 21 1014.1 1013.9 1.6
20/08:00pm 9.1 4.1 8.0 93 0.5 W 24 39 13 21 1013.6 1013.5 1.2
20/07:30pm 9.1 3.3 7.9 92 0.6 W 28 41 15 22 1013.1 1013.0 0.8
20/07:08pm 9.2 3.4 7.8 91 0.7 W 28 46 15 25 1012.6 1012.5 0.8
20/07:00pm 9.0 3.5 7.6 91 0.7 W 26 39 14 21 1012.5 1012.4 0.8
20/06:30pm 9.3 3.8 7.7 90 0.8 W 26 43 14 23 1012.1 1012.0 0.6
20/06:00pm 9.5 3.2 7.4 87 1.0 W 30 46 16 25 1011.6 1011.4 0.2
20/05:31pm 10.3 3.9 6.8 79 1.7 W 30 48 16 26 1010.9 1010.7 0.0
20/05:30pm 10.3 3.4 6.6 78 1.8 W 32 48 17 26 1010.9 1010.7 0.0
20/05:02pm 10.6 3.1 6.4 75 2.0 WSW 35 56 19 30 1010.3 1010.2 0.0
20/05:00pm 10.7 3.2 6.3 74 2.1 WSW 35 52 19 28 1010.3 1010.2 0.0
20/04:30pm 11.9 3.4 5.1 63 3.2 W 39 65 21 35 1009.6 1009.5 0.0
20/04:00pm 12.1 3.5 4.6 60 3.5 W 39 57 21 31 1008.9 1008.7 0.0
20/03:30pm 12.2 3.9 4.2 58 3.7 W 37 67 20 36 1008.4 1008.2 0.0
20/03:00pm 12.6 3.5 3.8 55 4.0 W 41 69 22 37 1007.9 1007.7 0.0
20/02:30pm 12.8 4.0 3.7 54 4.2 W 39 59 21 32 1007.7 1007.5 0.0
20/02:00pm 13.1 3.3 3.2 51 4.5 W 44 70 24 38 1007.3 1007.1 0.0
20/01:30pm 12.3 2.8 3.8 56 3.9 W 43 65 23 35 1007.0 1006.9 0.0
20/01:00pm 12.4 3.1 2.8 52 4.3 W 41 67 22 36 1006.8 1006.7 0.0
20/12:30pm 13.7 3.8 2.9 48 4.9 W 44 69 24 37 1006.6 1006.5 0.0
20/12:00pm 13.3 3.1 3.1 50 4.6 W 46 74 25 40 1006.5 1006.4 0.0
20/11:30am 12.7 3.0 3.1 52 4.3 W 43 69 23 37 1006.4 1006.3 0.0
20/11:00am 11.3 2.8 2.9 56 3.7 W 37 67 20 36 1006.6 1006.5 0.0
20/10:30am 10.3 0.6 2.9 60 3.2 W 43 65 23 35 1006.7 1006.6 0.0
20/10:00am 10.6 1.8 3.4 61 3.2 W 39 57 21 31 1006.7 1006.6 0.0
20/09:30am 10.1 1.6 3.2 62 3.0 W 37 59 20 32 1006.5 1006.4 0.0
20/09:02am 9.3 1.5 3.1 65 2.7 W 33 56 18 30 1006.7 1006.6 0.0
20/09:00am 9.5 1.8 3.3 65 2.7 W 33 50 18 27 1006.6 1006.5 0.6
20/08:30am 8.2 -0.7 2.9 69 2.3 W 39 61 21 33 1006.6 1006.5 0.6
20/08:00am 8.0 0.5 3.5 73 2.0 WNW 32 50 17 27 1006.4 1006.3 0.6
20/07:30am 7.0 -0.8 3.1 76 1.7 WNW 33 54 18 29 1006.3 1006.2 0.6
20/07:11am 5.9 -1.0 2.5 79 1.4 WNW 28 46 15 25 1006.0 1005.8 0.6
20/07:00am 5.4 -2.0 2.1 79 1.4 WNW 30 46 16 25 1005.8 1005.6 0.6
20/06:55am 5.3 -1.7 2.0 79 1.4 WNW 28 46 15 25 1005.9 1005.7 0.6
20/06:30am 4.7 -1.9 1.9 82 1.1 WNW 26 41 14 22 1005.8 1005.6 0.6
20/06:00am 4.3 -2.4 1.7 83 1.1 WNW 26 43 14 23 1005.6 1005.4 0.6
20/05:40am 4.3 -3.1 1.7 83 1.0 WNW 30 50 16 27 1005.6 1005.4 0.6
20/05:30am 4.1 -2.6 1.5 83 1.0 WNW 26 43 14 23 1005.3 1005.1 0.6
20/05:00am 4.1 -2.6 1.6 84 1.0 WNW 26 44 14 24 1005.3 1005.1 0.6
20/04:30am 4.1 -2.2 1.5 83 1.0 WNW 24 39 13 21 1005.2 1005.0 0.6
20/04:00am 3.8 -2.9 1.4 84 1.0 WNW 26 43 14 23 1005.1 1004.9 0.6
20/03:30am 3.8 -2.5 1.4 84 1.0 WNW 24 39 13 21 1005.2 1005.0 0.6
20/03:00am 4.0 -2.3 1.5 84 1.0 WNW 24 37 13 20 1005.0 1004.8 0.6
20/02:30am 4.0 -1.9 1.9 86 0.8 WNW 22 32 12 17 1005.4 1005.2 0.4
20/02:00am 4.3 -1.5 2.2 86 0.9 WNW 22 35 12 19 1005.5 1005.3 0.4
20/01:30am 4.5 -1.7 2.2 85 0.9 WNW 24 37 13 20 1005.8 1005.6 0.4
20/01:00am 4.6 -1.6 2.3 85 0.9 WNW 24 37 13 20 1005.9 1005.7 0.4
20/12:30am 4.4 -0.9 2.1 85 0.9 WNW 19 32 10 17 1006.1 1005.9 0.4
20/12:00am 4.6 -0.6 2.3 85 0.9 WNW 19 32 10 17 1006.5 1006.4 0.4
 
Date/Time
WST
Temp
°C
App
Temp
°C
Dew
Point
°C
Rel
Hum
%
Delta-T
°C
Wind Press
QNH
hPa
Press
MSL
hPa
Rain since
9am
mm
Dir  Spd
km/h
Gust
km/h
Spd
kts
Gust
kts
19/11:30pm 4.7 -0.7 2.2 84 1.0 WNW 20 32 11 17 1006.4 1006.3 0.4
19/11:00pm 5.1 -0.6 2.8 85 1.0 WNW 22 39 12 21 1006.4 1006.3 0.4
19/10:30pm 5.4 0.2 3.3 86 0.9 WNW 20 33 11 18 1006.4 1006.3 0.4
19/10:00pm 5.6 0.4 3.4 86 0.9 WNW 20 33 11 18 1006.5 1006.4 0.4
19/09:30pm 5.7 1.1 3.5 86 0.9 WNW 17 26 9 14 1006.4 1006.3 0.4
19/09:00pm 6.0 1.0 3.7 85 1.0 WNW 19 26 10 14 1006.6 1006.5 0.4
19/08:30pm 6.4 1.5 4.2 86 1.0 W 19 30 10 16 1006.5 1006.4 0.4
19/08:00pm 6.1 1.9 3.9 86 1.0 WNW 15 22 8 12 1006.3 1006.2 0.4
19/07:30pm 6.6 1.5 4.3 85 1.0 WNW 20 35 11 19 1005.9 1005.7 0.4
19/07:22pm 7.0 0.0 4.3 83 1.2 WNW 30 48 16 26 1006.0 1005.8 0.4
19/07:14pm 8.1 1.8 3.9 75 1.8 W 26 48 14 26 1006.2 1006.0 0.2
19/07:00pm 7.9 2.9 3.6 74 1.9 W 19 32 10 17 1005.8 1005.6 0.2
19/06:30pm 7.7 1.8 4.1 78 1.6 WSW 24 46 13 25 1005.9 1005.7 0.2
19/06:29pm 7.9 2.5 4.3 78 1.6 WSW 22 46 12 25 1005.9 1005.7 0.2
19/06:00pm 8.2 2.8 4.6 78 1.6 W 22 32 12 17 1005.3 1005.1 0.2
19/05:33pm 9.6 3.0 4.2 69 2.4 WSW 28 48 15 26 1005.1 1004.9 0.0
19/05:30pm 9.9 3.6 3.9 66 2.7 WSW 26 39 14 21 1005.0 1004.8 0.0
19/05:11pm 11.2 4.4 3.0 57 3.6 W 28 54 15 29 1004.6 1004.4 0.0
19/05:00pm 12.9 7.7 3.6 53 4.3 W 20 30 11 16 1003.9 1003.7 0.0
19/04:30pm 12.3 7.5 5.7 64 3.1 W 20 30 11 16 1003.9 1003.7 0.0
19/04:00pm 11.0 5.0 7.1 77 1.9 WSW 28 44 15 24 1003.5 1003.4 0.0
19/03:31pm 13.9 7.4 4.5 53 4.4 WSW 28 52 15 28 1003.1 1002.9 0.0
19/03:30pm 14.2 7.7 4.5 52 4.6 WSW 28 41 15 22 1003.0 1002.8 0.0
19/03:02pm 16.1 8.4 2.5 40 6.2 W 32 52 17 28 1002.4 1002.2 0.0
19/03:00pm 16.3 8.6 2.3 39 6.4 W 32 48 17 26 1002.4 1002.2 0.0
19/02:30pm 16.7 9.4 2.3 38 6.6 WNW 30 48 16 26 1002.4 1002.2 0.0
19/02:00pm 18.2 10.8 2.1 34 7.5 W 30 48 16 26 1002.3 1002.1 0.0
19/01:30pm 17.5 10.5 1.9 35 7.1 W 28 48 15 26 1002.4 1002.2 0.0
19/01:00pm 18.3 10.2 1.3 32 7.8 W 33 52 18 28 1002.3 1002.1 0.0
19/12:30pm 18.1 10.3 2.8 36 7.2 WNW 33 57 18 31 1002.6 1002.4 0.0
19/12:00pm 16.7 9.9 5.3 47 5.6 W 30 48 16 26 1002.9 1002.7 0.0
19/11:30am 16.3 9.4 4.7 46 5.6 W 30 52 16 28 1003.2 1003.0 0.0
19/11:00am 14.7 9.0 8.2 65 3.3 W 28 48 15 26 1003.7 1003.5 0.0

Other formats

Comma delimited format used in spreadsheet applications
http://www.bom.gov.au/fwo/IDW60801/IDW60801.95636.axf

JavaScript Object Notation format (JSON) in row-major order
http://www.bom.gov.au/fwo/IDW60801/IDW60801.95636.json

Data quality

Most of these data are generated automatically and are frequently updated. Quality checks on data are not normally performed. It is possible for incorrect values to appear. Refer to information at About Latest Weather Observations and please check the disclaimer before using these data.